• Join FlightAware (Why Join?)
  • Login
  • US Flag 
01:54AM EDT


 

Airport Tracker/Info


-or-


 

Live Flight TrackerFlight Track Log ✈ LBQ611 ✈ 24-Jul-2013 ✈ KDAL - KCRP

Flight Track Log - Related Links

Times and Time Zones

All times are in EDT time to prevent confusion due to time zone crossing. See the LBQ611 flight status page for this flight to view local times or setup timezone preferences in your user account.

Time Position Orientation Groundspeed Altitude Reporting Facility
EDT Latitude Longitude Course Direction KTS MPH feet Rate Location/Type
08:52PM 32.8667 -96.8667 320° Northwest 175 201 1,200  Level Dallas / Fort Worth TRACON
08:53PM 32.9333 -96.9333 320° Northwest 224 258 4,400 2,280 Climbing Dallas / Fort Worth TRACON
08:54PM 32.9500 -97.0000 287° West 207 238 7,000 2,340 Climbing Dallas / Fort Worth TRACON
08:55PM 32.9333 -97.0500 248° West 205 236 8,900 1,920 Climbing Dallas / Fort Worth TRACON
08:57PM 32.8225 -97.0797 193° South 239 275 12,100 1,920 Climbing Fort Worth Center
08:58PM 32.7494 -97.0850 183° South 239 275 14,200 1,800 Climbing Fort Worth Center
08:59PM 32.6828 -97.0850 180° South 250 288 15,700 1,320 Climbing Fort Worth Center
09:00PM 32.5969 -97.0831 179° South 275 316 16,900 1,380 Climbing Fort Worth Center
09:01PM 32.5156 -97.0733 174° South 286 329 18,500 1,500 Climbing Fort Worth Center
09:02PM 32.4342 -97.0589 171° South 293 337 19,900 1,260 Climbing Fort Worth Center
09:03PM 32.3547 -97.0419 170° South 293 337 21,100 1,140 Climbing Fort Worth Center
09:04PM 32.2711 -97.0400 179° South 299 344 22,200 1,020 Climbing Fort Worth Center
09:05PM 32.1961 -97.0450 183° South 299 344 23,200 960 Climbing Fort Worth Center
09:06PM 32.1083 -97.0503 183° South 311 358 24,200 960 Climbing Fort Worth Center
09:07PM 32.0208 -97.0556 183° South 316 364 25,200 960 Climbing Fort Worth Center
09:08PM 31.9311 -97.0633 184° South 316 364 26,200 780 Climbing Fort Worth Center
09:09PM 31.8414 -97.0644 181° South 326 375 26,800 660 Climbing Houston Center
09:10PM 31.7472 -97.0706 183° South 333 383 27,600 780 Climbing Houston Center
09:11PM 31.6519 -97.0744 182° South 338 389 28,400 780 Climbing Houston Center
09:12PM 31.5406 -97.0814 183° South 340 391 29,300 780 Climbing Houston Center
09:13PM 31.4439 -97.0911 185° South 343 395 30,000 300 Climbing Houston Center
09:14PM 31.3442 -97.1042 186° South 353 406 30,000  Level Houston Center
09:15PM 31.2389 -97.1147 185° South 371 427 30,000  Level Houston Center
09:16PM 31.1300 -97.1256 185° South 383 441 30,000  Level Houston Center
09:17PM 31.0194 -97.1356 184° South 388 447 30,000  Level Houston Center
09:18PM 30.9050 -97.1450 184° South 399 459 30,000  Level Houston Center
09:19PM 30.7908 -97.1581 186° South 400 460 30,000  Level Houston Center
09:20PM 30.6797 -97.1703 185° South 396 456 30,000  Level Houston Center
09:21PM 30.5686 -97.1822 185° South 395 455 30,000  Level Houston Center
09:22PM 30.4581 -97.1942 185° South 395 455 30,000  Level Houston Center
09:23PM 30.3461 -97.2056 185° South 398 458 30,000  Level Houston Center
09:25PM 30.2347 -97.2164 185° South 397 457 30,000  Level Houston Center
09:26PM 30.1239 -97.2278 185° South 396 456 30,000  Level Houston Center
09:27PM 30.0250 -97.2381 185° South 393 452 30,000  Level Houston Center
09:28PM 29.8956 -97.2511 185° South 390 449 30,000  Level Houston Center
09:29PM 29.7878 -97.2614 185° South 389 448 30,000 -180 Level Houston Center
09:30PM 29.6797 -97.2725 185° South 391 450 29,700 -900 Descending Houston Center
09:31PM 29.5658 -97.2831 185° South 409 471 28,200 -1,440 Descending Houston Center
09:32PM 29.4483 -97.2942 185° South 426 490 26,800 -1,440 Descending Houston Center
09:33PM 29.3314 -97.3069 185° South 427 491 25,300 -1,500 Descending Houston Center
09:34PM 29.2128 -97.3192 185° South 430 495 23,800 -1,620 Descending Houston Center
09:35PM 29.0808 -97.3319 185° South 399 459 22,000 -1,620 Descending Houston Center
09:36PM 28.9744 -97.3411 184° South 388 447 20,500 -1,500 Descending Houston Center
09:37PM 28.8703 -97.3514 185° South 378 435 19,000 -1,500 Descending Houston Center
09:38PM 28.7706 -97.3611 185° South 364 419 17,500 -1,500 Descending Houston Center
09:39PM 28.6719 -97.3714 185° South 359 413 16,000 -1,500 Descending Houston Center
09:40PM 28.5728 -97.3811 185° South 358 412 14,500 -1,620 Descending Houston Center
09:40PM 28.4978 -97.3883 185° South 352 405 13,400 -1,500 Descending Houston Center
09:42PM 28.3811 -97.3997 185° South 346 398 11,500 -1,560 Descending Houston Center
09:43PM 28.2842 -97.4353 198° South 314 361 9,700 -1,680 Descending Houston Center
09:44PM 28.2053 -97.4597 195° South 298 343 8,100 -1,500 Descending Houston Center
09:45PM 28.1294 -97.4844 196° South 284 327 6,700 -1,500 Descending Houston Center
09:46PM 28.0544 -97.5067 195° South 282 325 5,100 -1,620 Descending Houston Center
09:47PM 27.9769 -97.5339 197° South 268 308 3,500 -1,500 Descending Houston Center
09:48PM 27.9100 -97.5522 194° South 271 312 2,100 -720 Descending Houston Center
09:49PM 27.8350 -97.5628 187° South 185 213 1,900 -480 Descending Houston Center
09:50PM 27.8139 -97.5539 160° South 177 204 1,200 -780 Descending Houston Center
09:51PM 27.7917 -97.5308 137° Southeast 84 97 500 -540 Descending Houston Center
09:52PM 27.7714 -97.5061 133° Southeast 114 131 200 -300 Descending Houston Center